createdAt,value
2023-12-12T00:07:46.591Z,84
2023-12-12T00:12:48.014Z,85
2023-12-12T00:17:49.856Z,85
2023-12-12T00:27:52.916Z,85
2023-12-12T00:37:56.149Z,85
2023-12-12T01:08:06.551Z,85
2023-12-12T01:48:19.450Z,86
2023-12-12T01:58:22.481Z,86
2023-12-12T02:13:27.622Z,86
2023-12-12T02:38:35.584Z,87
2023-12-12T02:43:37.564Z,87
2023-12-12T02:48:39.412Z,87
2023-12-12T02:53:41.312Z,88
2023-12-12T02:58:42.868Z,87
2023-12-12T03:03:45.047Z,87
2023-12-12T03:08:47.063Z,87
2023-12-12T03:13:48.843Z,87
2023-12-12T03:18:50.997Z,88
2023-12-12T03:23:52.417Z,88
2023-12-12T03:28:54.330Z,87
2023-12-12T03:33:55.816Z,87
2023-12-12T03:38:57.076Z,87
2023-12-12T03:43:59.061Z,88
2023-12-12T03:49:00.828Z,88
2023-12-12T03:54:02.078Z,87
2023-12-12T03:59:03.579Z,87
2023-12-12T04:04:05.790Z,87
2023-12-12T04:09:07.405Z,87
2023-12-12T04:14:09.422Z,88
2023-12-12T04:19:10.733Z,88
2023-12-12T04:24:12.458Z,87
2023-12-12T04:29:14.121Z,87
2023-12-12T04:34:16.333Z,88
2023-12-12T04:39:18.348Z,88
2023-12-12T04:44:19.851Z,89
2023-12-12T04:49:22.141Z,88
2023-12-12T04:54:24.136Z,88
2023-12-12T04:59:25.772Z,88
2023-12-12T05:04:27.742Z,88
2023-12-12T05:09:29.374Z,89
2023-12-12T05:14:30.742Z,90
2023-12-12T05:19:32.661Z,89
2023-12-12T05:24:33.754Z,89
2023-12-12T05:29:35.049Z,89
2023-12-12T05:34:37.035Z,89
2023-12-12T05:39:38.870Z,90
2023-12-12T05:44:40.049Z,91
2023-12-12T05:49:42.054Z,91
2023-12-12T05:54:43.390Z,90
2023-12-12T05:59:45.110Z,90
2023-12-12T06:04:47.444Z,90
2023-12-12T06:09:49.412Z,90
2023-12-12T06:14:50.923Z,92
2023-12-12T06:19:53.016Z,91
2023-12-12T06:24:54.409Z,91
2023-12-12T06:29:55.955Z,90
2023-12-12T06:34:57.814Z,90
2023-12-12T06:39:59.806Z,90
2023-12-12T06:45:01.109Z,91
2023-12-12T06:50:02.450Z,91
2023-12-12T06:55:10.130Z,90
2023-12-12T07:00:11.928Z,90
2023-12-12T07:05:13.844Z,90
2023-12-12T07:10:15.709Z,90
2023-12-12T07:15:17.107Z,91
2023-12-12T07:20:18.658Z,91
2023-12-12T07:25:19.937Z,90
2023-12-12T07:30:21.125Z,89
2023-12-12T07:35:22.757Z,90
2023-12-12T07:40:24.507Z,90
2023-12-12T07:45:26.152Z,90
2023-12-12T07:50:28.264Z,90
2023-12-12T07:55:29.791Z,90
2023-12-12T08:00:31.871Z,91
2023-12-12T08:05:34.029Z,91
2023-12-12T08:10:35.221Z,92
2023-12-12T08:15:36.631Z,91
2023-12-12T08:20:38.320Z,90
2023-12-12T08:25:39.845Z,89
2023-12-12T08:30:41.176Z,88
2023-12-12T08:35:43.272Z,88
2023-12-12T08:40:45.338Z,87
2023-12-12T08:45:46.689Z,86
2023-12-12T08:50:48.437Z,86
2023-12-12T08:55:50.251Z,85
2023-12-12T09:00:52.100Z,84
2023-12-12T09:05:53.524Z,84
2023-12-12T09:10:55.189Z,83
2023-12-12T09:15:56.849Z,83
2023-12-12T09:20:58.449Z,82
2023-12-12T09:26:00.448Z,82
2023-12-12T09:31:02.273Z,81
2023-12-12T09:36:03.694Z,80
2023-12-12T09:41:05.350Z,80
2023-12-12T09:46:07.378Z,80
2023-12-12T09:51:09.412Z,78
2023-12-12T09:56:10.962Z,78
2023-12-12T10:01:12.976Z,76
2023-12-12T10:06:14.176Z,77
2023-12-12T10:11:16.325Z,78
2023-12-12T10:16:18.058Z,76
2023-12-12T10:21:19.983Z,76
2023-12-12T10:26:21.854Z,76
2023-12-12T10:31:23.303Z,76
2023-12-12T10:36:24.859Z,76
2023-12-12T10:41:27.133Z,77
2023-12-12T10:46:27.891Z,76
2023-12-12T10:51:29.500Z,76
2023-12-12T10:56:31.208Z,76
2023-12-12T11:01:33.394Z,76
2023-12-12T11:06:34.835Z,76
2023-12-12T11:11:36.260Z,76
2023-12-12T11:16:38.065Z,76
2023-12-12T11:21:40.088Z,76
2023-12-12T11:26:41.893Z,76
2023-12-12T11:31:43.763Z,77
2023-12-12T11:36:45.291Z,78
2023-12-12T11:41:46.545Z,78
2023-12-12T11:46:48.526Z,79
2023-12-12T11:51:50.075Z,81
2023-12-12T11:56:52.253Z,82
2023-12-12T12:01:53.807Z,83
2023-12-12T12:06:55.317Z,84
2023-12-12T12:11:56.662Z,85
2023-12-12T12:16:58.586Z,88
2023-12-12T12:21:59.960Z,89
2023-12-12T12:27:01.168Z,91
2023-12-12T12:32:03.317Z,92
2023-12-12T12:37:05.017Z,93
2023-12-12T12:42:07.017Z,94
2023-12-12T12:47:08.455Z,95
2023-12-12T12:52:09.943Z,96
2023-12-12T12:57:11.661Z,98
2023-12-12T13:02:13.715Z,100
2023-12-12T13:07:15.624Z,99
2023-12-12T13:12:17.442Z,99
2023-12-12T13:17:19.186Z,99
2023-12-12T13:22:20.645Z,99
2023-12-12T13:27:21.832Z,99
2023-12-12T13:32:23.676Z,100
2023-12-12T13:37:25.661Z,100
2023-12-12T13:42:26.827Z,98
2023-12-12T13:47:28.383Z,98
2023-12-12T13:52:30.070Z,98
2023-12-12T13:57:32.242Z,99
2023-12-12T14:02:34.497Z,100
2023-12-12T14:07:36.206Z,99
2023-12-12T14:12:37.910Z,98
2023-12-12T14:27:43.216Z,100
2023-12-12T15:02:54.475Z,100
2023-12-12T15:12:58.319Z,100
2023-12-12T15:23:01.451Z,100
2023-12-12T15:38:06.142Z,100
2023-12-12T16:13:18.760Z,99
2023-12-12T16:18:19.943Z,99
2023-12-12T16:28:22.907Z,98
2023-12-12T16:33:24.202Z,99
2023-12-12T16:48:29.353Z,98
2023-12-12T17:13:37.936Z,97
2023-12-12T17:18:39.478Z,98
2023-12-12T17:23:41.369Z,98
2023-12-12T17:28:42.720Z,99
2023-12-12T17:33:44.336Z,99
2023-12-12T17:38:46.108Z,98
2023-12-12T17:43:47.943Z,99
2023-12-12T17:48:49.889Z,100
2023-12-12T17:53:51.922Z,100
2023-12-12T17:58:53.463Z,99
2023-12-12T18:03:55.471Z,100
2023-12-12T18:08:57.412Z,100
2023-12-12T18:13:58.644Z,100
2023-12-12T18:19:00.544Z,100
2023-12-12T18:24:02.442Z,100
2023-12-12T18:29:04.409Z,100
2023-12-12T18:34:06.604Z,100
2023-12-12T18:39:08.560Z,100
2023-12-12T18:44:10.412Z,100
2023-12-12T18:49:15.072Z,100
2023-12-12T18:54:13.746Z,100
2023-12-12T18:59:20.905Z,100
2023-12-12T19:04:17.807Z,100
2023-12-12T19:09:19.475Z,100
2023-12-12T19:14:21.158Z,100
2023-12-12T19:19:22.517Z,100
2023-12-12T19:24:23.873Z,100
2023-12-12T19:29:27.357Z,100
2023-12-12T19:34:27.265Z,100
2023-12-12T19:39:28.929Z,100
2023-12-12T19:44:30.772Z,100
2023-12-12T19:49:32.652Z,100
2023-12-12T19:54:34.508Z,100
2023-12-12T19:59:36.209Z,100
2023-12-12T20:04:38.396Z,100
2023-12-12T20:09:40.522Z,100
2023-12-12T20:14:42.213Z,100
2023-12-12T20:19:44.377Z,100
2023-12-12T20:24:45.942Z,100
2023-12-12T20:29:47.802Z,100
2023-12-12T20:34:49.758Z,100
2023-12-12T20:39:51.481Z,100
2023-12-12T20:44:52.911Z,100
2023-12-12T20:49:54.493Z,100
2023-12-12T20:54:56.418Z,100
2023-12-12T20:59:57.855Z,100
2023-12-12T21:04:59.603Z,100
2023-12-12T21:10:01.675Z,100
2023-12-12T21:15:02.937Z,100
2023-12-12T21:20:04.840Z,100
2023-12-12T21:25:06.780Z,100
2023-12-12T21:30:08.518Z,100
2023-12-12T21:35:09.937Z,100
2023-12-12T21:40:12.227Z,100
2023-12-12T21:45:13.727Z,100
2023-12-12T21:50:15.105Z,100
2023-12-12T21:55:16.512Z,100
2023-12-12T22:00:18.282Z,100
2023-12-12T22:05:20.344Z,100
2023-12-12T22:10:22.246Z,100
2023-12-12T22:15:24.176Z,100
2023-12-12T22:20:26.317Z,100
2023-12-12T22:25:27.610Z,100
2023-12-12T22:30:29.471Z,100
2023-12-12T22:35:31.190Z,100
2023-12-12T22:40:33.251Z,100
2023-12-12T22:45:35.065Z,100
2023-12-12T22:50:38.730Z,100
2023-12-12T22:55:39.255Z,100
2023-12-12T23:00:41.163Z,100
2023-12-12T23:05:43.205Z,100
2023-12-12T23:10:45.225Z,100
2023-12-12T23:15:46.854Z,99
2023-12-12T23:20:48.643Z,99
2023-12-12T23:25:50.377Z,99
2023-12-12T23:30:57.421Z,99
2023-12-12T23:35:53.471Z,97
2023-12-12T23:41:01.270Z,97
2023-12-12T23:46:03.254Z,97
2023-12-12T23:51:04.586Z,97
2023-12-12T23:56:06.383Z,98
